createdAt,value
2022-10-23T00:00:24.237Z,12.77
2022-10-23T00:01:24.120Z,12.77
2022-10-23T00:02:24.156Z,12.77
2022-10-23T00:03:24.074Z,12.79
2022-10-23T00:04:24.065Z,12.77
2022-10-23T00:05:24.057Z,12.73
2022-10-23T00:06:24.065Z,12.76
2022-10-23T00:07:24.098Z,12.73
2022-10-23T00:08:24.016Z,12.72
2022-10-23T00:09:24.016Z,12.71
2022-10-23T00:10:24.003Z,12.69
2022-10-23T00:11:24.016Z,12.68
2022-10-23T00:12:23.979Z,12.68
2022-10-23T00:13:23.968Z,12.68
2022-10-23T00:14:23.960Z,12.65
2022-10-23T00:15:23.948Z,12.63
2022-10-23T00:16:23.949Z,12.62
2022-10-23T00:17:23.929Z,12.62
2022-10-23T00:18:23.909Z,12.62
2022-10-23T00:19:23.908Z,12.59
2022-10-23T00:20:23.890Z,12.59
2022-10-23T00:21:23.909Z,12.58
2022-10-23T00:22:23.870Z,12.59
2022-10-23T00:23:23.870Z,12.55
2022-10-23T00:24:23.850Z,12.54
2022-10-23T00:25:23.849Z,12.53
2022-10-23T00:26:23.842Z,12.51
2022-10-23T00:27:23.821Z,12.50
2022-10-23T00:28:23.821Z,12.48
2022-10-23T00:29:23.823Z,12.48
2022-10-23T00:30:23.790Z,12.47
2022-10-23T00:31:23.803Z,12.44
2022-10-23T00:32:23.792Z,12.44
2022-10-23T00:33:23.763Z,12.43
2022-10-23T00:34:23.746Z,12.41
2022-10-23T00:35:23.744Z,12.41
2022-10-23T00:36:23.746Z,12.41
2022-10-23T00:37:23.724Z,12.40
2022-10-23T00:38:23.706Z,12.38
2022-10-23T00:39:23.696Z,12.38
2022-10-23T00:40:23.676Z,12.38
2022-10-23T00:41:23.697Z,12.35
2022-10-23T00:42:23.670Z,12.33
2022-10-23T00:43:23.666Z,12.32
2022-10-23T00:44:23.637Z,12.33
2022-10-23T00:45:23.637Z,12.33
2022-10-23T00:46:23.646Z,12.32
2022-10-23T00:47:23.618Z,12.32
2022-10-23T00:48:23.600Z,12.33
2022-10-23T00:49:23.596Z,12.29
2022-10-23T00:50:23.577Z,12.28
2022-10-23T00:51:23.589Z,12.28
2022-10-23T00:52:23.557Z,12.28
2022-10-23T00:53:23.550Z,12.26
2022-10-23T00:54:24.655Z,12.23
2022-10-23T00:55:23.531Z,12.25
2022-10-23T00:56:23.541Z,12.25
2022-10-23T00:57:23.549Z,12.23
2022-10-23T00:58:23.492Z,12.26
2022-10-23T00:59:23.490Z,12.23
2022-10-23T01:00:23.493Z,12.26
2022-10-23T01:01:23.594Z,12.25
2022-10-23T01:02:23.486Z,12.23
2022-10-23T01:03:23.452Z,12.23
2022-10-23T01:04:23.434Z,12.21
2022-10-23T01:05:23.424Z,12.21
2022-10-23T01:06:23.434Z,12.17
2022-10-23T01:07:23.406Z,12.17
2022-10-23T01:08:23.386Z,12.15
2022-10-23T01:09:23.385Z,12.15
2022-10-23T01:10:23.367Z,12.15
2022-10-23T01:11:23.385Z,12.15
2022-10-23T01:12:23.346Z,12.13
2022-10-23T01:13:23.344Z,12.13
2022-10-23T01:14:23.328Z,12.11
2022-10-23T01:15:23.331Z,12.11
2022-10-23T01:16:23.326Z,12.11
2022-10-23T01:17:23.298Z,12.11
2022-10-23T01:18:23.299Z,12.11
2022-10-23T01:19:23.285Z,12.11
2022-10-23T01:20:23.269Z,12.14
2022-10-23T01:21:23.279Z,12.13
2022-10-23T01:23:23.239Z,12.14
2022-10-23T01:24:23.239Z,12.13
2022-10-23T01:25:23.221Z,12.13
2022-10-23T01:26:23.219Z,12.14
2022-10-23T01:27:23.201Z,12.14
2022-10-23T01:28:23.180Z,12.11
2022-10-23T01:29:23.182Z,12.10
2022-10-23T01:30:23.163Z,12.10
2022-10-23T01:31:23.184Z,12.08
2022-10-23T01:32:23.132Z,12.11
2022-10-23T01:33:23.144Z,12.10
2022-10-23T01:34:23.123Z,12.10
2022-10-23T01:35:23.115Z,12.10
2022-10-23T01:36:23.113Z,12.10
2022-10-23T01:37:23.095Z,12.10
2022-10-23T01:38:23.074Z,12.11
2022-10-23T01:39:23.075Z,12.10
2022-10-23T01:40:23.056Z,12.08
2022-10-23T01:41:23.074Z,12.07
2022-10-23T01:42:23.042Z,12.05
2022-10-23T01:43:23.034Z,12.05
2022-10-23T01:44:23.016Z,12.04
2022-10-23T01:45:23.010Z,12.00
2022-10-23T01:46:23.019Z,12.00
2022-10-23T01:47:22.993Z,11.99
2022-10-23T01:48:22.977Z,11.99
2022-10-23T01:49:22.969Z,11.97
2022-10-23T01:50:22.948Z,11.96
2022-10-23T01:51:22.969Z,11.95
2022-10-23T01:52:22.929Z,11.96
2022-10-23T01:53:22.921Z,11.95
2022-10-23T01:54:22.910Z,11.93
2022-10-23T01:55:22.908Z,11.91
2022-10-23T01:56:22.919Z,11.88
2022-10-23T01:57:22.892Z,11.88
2022-10-23T01:58:22.870Z,11.87
2022-10-23T01:59:22.864Z,11.85
2022-10-23T02:00:22.852Z,11.85
2022-10-23T02:01:22.955Z,11.84
2022-10-23T02:02:22.885Z,11.84
2022-10-23T02:03:22.824Z,11.85
2022-10-23T02:04:22.810Z,11.82
2022-10-23T02:05:22.802Z,11.82
2022-10-23T02:06:22.804Z,11.82
2022-10-23T02:07:22.781Z,11.77
2022-10-23T02:08:22.764Z,11.76
2022-10-23T02:09:22.762Z,11.73
2022-10-23T02:10:22.743Z,11.73
2022-10-23T02:11:22.755Z,11.70
2022-10-23T02:12:22.757Z,11.70
2022-10-23T02:13:22.716Z,11.69
2022-10-23T02:14:22.707Z,11.69
2022-10-23T02:15:22.696Z,11.69
2022-10-23T02:16:22.707Z,11.69
2022-10-23T02:17:22.677Z,11.70
2022-10-23T02:18:22.659Z,11.69
2022-10-23T02:19:22.659Z,11.66
2022-10-23T02:20:22.640Z,11.64
2022-10-23T02:21:22.667Z,11.62
2022-10-23T02:22:22.618Z,11.62
2022-10-23T02:23:22.611Z,11.61
2022-10-23T02:24:22.599Z,11.61
2022-10-23T02:25:22.590Z,11.58
2022-10-23T02:26:22.590Z,11.58
2022-10-23T02:27:22.572Z,11.58
2022-10-23T02:28:22.559Z,11.58
2022-10-23T02:29:22.558Z,11.56
2022-10-23T02:30:22.531Z,11.55
2022-10-23T02:31:22.542Z,11.54
2022-10-23T02:32:22.518Z,11.54
2022-10-23T02:33:22.509Z,11.52
2022-10-23T02:34:22.492Z,11.51
2022-10-23T02:35:22.503Z,11.52
2022-10-23T02:36:22.492Z,11.51
2022-10-23T02:38:22.454Z,11.51
2022-10-23T02:39:22.452Z,11.51
2022-10-23T02:40:22.426Z,11.51
2022-10-23T02:41:22.446Z,11.51
2022-10-23T02:42:22.405Z,11.51
2022-10-23T02:43:22.405Z,11.51
2022-10-23T02:44:22.387Z,11.49
2022-10-23T02:45:22.385Z,11.51
2022-10-23T02:46:22.405Z,11.52
2022-10-23T02:47:22.368Z,11.51
2022-10-23T02:48:22.354Z,11.49
2022-10-23T02:49:22.338Z,11.51
2022-10-23T02:50:22.326Z,11.52
2022-10-23T02:51:22.327Z,11.54
2022-10-23T02:52:22.299Z,11.54
2022-10-23T02:53:22.301Z,11.54
2022-10-23T02:54:22.282Z,11.54
2022-10-23T02:55:22.277Z,11.56
2022-10-23T02:56:22.278Z,11.56
2022-10-23T02:57:22.258Z,11.58
2022-10-23T02:58:22.273Z,11.61
2022-10-23T02:59:22.231Z,11.59
2022-10-23T03:00:22.219Z,11.61
2022-10-23T03:01:22.269Z,11.64
2022-10-23T03:02:22.354Z,11.64
2022-10-23T03:03:22.191Z,11.64
2022-10-23T03:04:22.181Z,11.66
2022-10-23T03:05:22.171Z,11.64
2022-10-23T03:06:22.175Z,11.66
2022-10-23T03:07:22.150Z,11.66
2022-10-23T03:08:22.133Z,11.66
2022-10-23T03:09:22.133Z,11.64
2022-10-23T03:10:22.122Z,11.64
2022-10-23T03:11:22.124Z,11.64
2022-10-23T03:12:22.093Z,11.64
2022-10-23T03:13:22.083Z,11.64
2022-10-23T03:14:22.078Z,11.67
2022-10-23T03:15:22.059Z,11.67
2022-10-23T03:16:22.076Z,11.67
2022-10-23T03:17:22.036Z,11.66
2022-10-23T03:18:22.026Z,11.64
2022-10-23T03:19:22.016Z,11.64
2022-10-23T03:20:22.006Z,11.64
2022-10-23T03:21:22.015Z,11.64
2022-10-23T03:22:21.987Z,11.62
2022-10-23T03:23:21.977Z,11.62
2022-10-23T03:24:21.975Z,11.61
2022-10-23T03:25:21.958Z,11.61
2022-10-23T03:26:21.966Z,11.59
2022-10-23T03:27:21.993Z,11.59
2022-10-23T03:28:21.927Z,11.59
2022-10-23T03:29:21.910Z,11.61
2022-10-23T03:30:21.908Z,11.61
2022-10-23T03:31:21.907Z,11.58
2022-10-23T03:32:21.887Z,11.58
2022-10-23T03:33:21.870Z,11.59
2022-10-23T03:34:21.862Z,11.59
2022-10-23T03:35:21.852Z,11.61
2022-10-23T03:36:21.853Z,11.58
2022-10-23T03:37:21.822Z,11.59
2022-10-23T03:38:21.822Z,11.59
2022-10-23T03:39:21.804Z,11.58
2022-10-23T03:40:21.810Z,11.58
2022-10-23T03:41:21.826Z,11.55
2022-10-23T03:42:21.777Z,11.54
2022-10-23T03:43:21.767Z,11.52
2022-10-23T03:44:21.760Z,11.52
2022-10-23T03:45:21.744Z,11.52
2022-10-23T03:46:21.753Z,11.49
2022-10-23T03:47:21.755Z,11.52
2022-10-23T03:48:21.715Z,11.52
2022-10-23T03:49:21.695Z,11.51
2022-10-23T03:50:21.706Z,11.52
2022-10-23T03:51:21.707Z,11.51
2022-10-23T03:52:21.758Z,11.48
2022-10-23T03:53:21.659Z,11.49
2022-10-23T03:54:21.647Z,11.48
2022-10-23T03:55:21.636Z,11.48
2022-10-23T03:56:21.648Z,11.46
2022-10-23T03:57:21.619Z,11.45
2022-10-23T03:58:21.617Z,11.45
2022-10-23T03:59:21.599Z,11.48
2022-10-23T04:00:21.608Z,11.46
2022-10-23T04:01:21.614Z,11.46
2022-10-23T04:02:21.661Z,11.48
2022-10-23T04:03:21.550Z,11.45
2022-10-23T04:04:21.548Z,11.46
2022-10-23T04:05:21.552Z,11.43
2022-10-23T04:06:21.528Z,11.45
2022-10-23T04:07:21.538Z,11.41
2022-10-23T04:08:21.513Z,11.41
2022-10-23T04:09:21.492Z,11.40
2022-10-23T04:10:21.503Z,11.38
2022-10-23T04:11:21.473Z,11.38
2022-10-23T04:12:21.464Z,11.37
2022-10-23T04:13:21.453Z,11.36
2022-10-23T04:14:21.441Z,11.34
2022-10-23T04:15:21.454Z,11.36
2022-10-23T04:16:21.425Z,11.34
2022-10-23T04:17:21.482Z,11.36
2022-10-23T04:18:21.417Z,11.34
2022-10-23T04:19:21.396Z,11.34
2022-10-23T04:20:21.380Z,11.33
2022-10-23T04:21:21.376Z,11.33
2022-10-23T04:22:24.695Z,11.31
2022-10-23T04:23:22.347Z,11.30
2022-10-23T04:24:21.337Z,11.28
2022-10-23T04:25:21.340Z,11.27
2022-10-23T04:26:21.347Z,11.20
2022-10-23T04:27:21.326Z,11.19
2022-10-23T04:28:21.295Z,11.18
2022-10-23T04:29:21.279Z,11.18
2022-10-23T04:30:21.280Z,11.18
2022-10-23T04:31:21.300Z,11.16
2022-10-23T04:32:21.252Z,11.18
2022-10-23T04:33:21.251Z,11.15
2022-10-23T04:34:21.232Z,11.15
2022-10-23T04:35:21.213Z,11.13
2022-10-23T04:36:21.249Z,11.16
2022-10-23T04:37:21.191Z,11.13
2022-10-23T04:38:21.189Z,11.15
2022-10-23T04:39:21.171Z,11.15
2022-10-23T04:40:21.163Z,11.16
2022-10-23T04:41:21.183Z,11.16
2022-10-23T04:42:21.204Z,11.19
2022-10-23T04:43:21.143Z,11.19
2022-10-23T04:44:21.124Z,11.19
2022-10-23T04:45:21.111Z,11.19
2022-10-23T04:46:21.137Z,11.20
2022-10-23T04:47:21.084Z,11.20
2022-10-23T04:48:23.420Z,11.19
2022-10-23T04:49:21.065Z,11.22
2022-10-23T04:50:21.066Z,11.20
2022-10-23T04:51:21.062Z,11.18
2022-10-23T04:52:21.036Z,11.13
2022-10-23T04:53:21.026Z,11.09
2022-10-23T04:54:21.046Z,11.08
2022-10-23T04:55:21.003Z,11.05
2022-10-23T04:56:21.017Z,11.05
2022-10-23T04:57:20.990Z,11.05
2022-10-23T04:58:20.978Z,11.08
2022-10-23T04:59:20.972Z,11.08
2022-10-23T05:00:20.958Z,11.04
2022-10-23T05:01:21.081Z,11.03
2022-10-23T05:02:20.940Z,11.01
2022-10-23T05:03:20.919Z,11.01
2022-10-23T05:04:20.910Z,11.03
2022-10-23T05:05:20.898Z,11.01
2022-10-23T05:06:20.909Z,11.01
2022-10-23T05:08:20.878Z,11.01
2022-10-23T05:09:20.852Z,11.03
2022-10-23T05:10:20.851Z,11.04
2022-10-23T05:11:20.869Z,11.05
2022-10-23T05:12:20.839Z,11.04
2022-10-23T05:13:20.815Z,11.01
2022-10-23T05:14:22.801Z,11.00
2022-10-23T05:15:20.795Z,11.00
2022-10-23T05:16:20.815Z,11.00
2022-10-23T05:17:20.773Z,11.00
2022-10-23T05:18:20.774Z,11.00
2022-10-23T05:19:23.460Z,10.98
2022-10-23T05:20:20.744Z,10.98
2022-10-23T05:21:20.747Z,10.98
2022-10-23T05:22:20.736Z,11.00
2022-10-23T05:23:20.706Z,10.98
2022-10-23T05:24:20.697Z,11.00
2022-10-23T05:25:20.688Z,11.00
2022-10-23T05:26:20.697Z,10.97
2022-10-23T05:27:20.664Z,10.98
2022-10-23T05:28:20.669Z,10.97
2022-10-23T05:29:20.650Z,10.95
2022-10-23T05:30:20.636Z,10.95
2022-10-23T05:31:20.666Z,10.93
2022-10-23T05:33:20.600Z,10.95
2022-10-23T05:34:20.597Z,10.93
2022-10-23T05:35:20.580Z,10.94
2022-10-23T05:36:20.590Z,10.91
2022-10-23T05:37:20.561Z,10.94
2022-10-23T05:38:20.551Z,10.91
2022-10-23T05:39:20.491Z,10.91
2022-10-23T05:40:20.536Z,10.87
2022-10-23T05:41:20.541Z,10.87
2022-10-23T05:42:20.510Z,10.87
2022-10-23T05:43:21.243Z,10.86
2022-10-23T05:44:20.493Z,10.86
2022-10-23T05:45:20.429Z,10.85
2022-10-23T05:46:20.425Z,10.86
2022-10-23T05:47:20.403Z,10.85
2022-10-23T05:48:34.432Z,10.85
2022-10-23T05:49:21.383Z,10.85
2022-10-23T05:50:20.374Z,10.87
2022-10-23T05:51:20.374Z,10.87
2022-10-23T05:52:20.352Z,10.90
2022-10-23T05:53:20.337Z,10.91
2022-10-23T05:54:20.326Z,10.91
2022-10-23T05:55:20.316Z,10.93
2022-10-23T05:56:20.327Z,10.91
2022-10-23T05:57:20.289Z,10.93
2022-10-23T05:58:20.290Z,10.93
2022-10-23T05:59:22.887Z,10.93
2022-10-23T06:00:20.268Z,10.90
2022-10-23T06:01:20.324Z,10.93
2022-10-23T06:02:20.270Z,10.93
2022-10-23T06:03:20.227Z,10.91
2022-10-23T06:04:20.238Z,10.94
2022-10-23T06:05:20.209Z,10.93
2022-10-23T06:06:20.219Z,10.93
2022-10-23T06:07:20.189Z,10.91
2022-10-23T06:08:20.190Z,10.91
2022-10-23T06:09:20.167Z,10.93
2022-10-23T06:10:20.159Z,10.93
2022-10-23T06:11:20.191Z,10.95
2022-10-23T06:12:20.139Z,10.95
2022-10-23T06:13:20.123Z,10.97
2022-10-23T06:14:20.111Z,10.97
2022-10-23T06:15:20.106Z,10.98
2022-10-23T06:16:20.112Z,11.00
2022-10-23T06:17:20.095Z,11.01
2022-10-23T06:18:20.072Z,11.00
2022-10-23T06:19:20.063Z,11.01
2022-10-23T06:20:20.053Z,11.01
2022-10-23T06:21:20.062Z,11.03
2022-10-23T06:23:20.024Z,11.03
2022-10-23T06:24:20.013Z,11.01
2022-10-23T06:25:19.996Z,11.00
2022-10-23T06:26:20.018Z,10.97
2022-10-23T06:27:19.976Z,10.97
2022-10-23T06:28:20.792Z,10.95
2022-10-23T06:29:19.957Z,10.95
2022-10-23T06:30:19.946Z,10.94
2022-10-23T06:31:19.947Z,10.94
2022-10-23T06:32:19.927Z,10.94
2022-10-23T06:33:19.920Z,10.93
2022-10-23T06:34:19.906Z,10.93
2022-10-23T06:35:19.895Z,10.91
2022-10-23T06:36:19.904Z,10.91
2022-10-23T06:37:19.868Z,10.91
2022-10-23T06:38:19.870Z,10.91
2022-10-23T06:39:19.851Z,10.90
2022-10-23T06:40:19.842Z,10.87
2022-10-23T06:41:19.846Z,10.85
2022-10-23T06:42:19.821Z,10.86
2022-10-23T06:43:19.801Z,10.86
2022-10-23T06:44:19.802Z,10.86
2022-10-23T06:45:19.783Z,10.87
2022-10-23T06:46:19.801Z,10.87
2022-10-23T06:47:19.765Z,10.87
2022-10-23T06:48:19.762Z,10.86
2022-10-23T06:49:19.742Z,10.87
2022-10-23T06:50:19.741Z,10.87
2022-10-23T06:51:19.737Z,10.90
2022-10-23T06:52:41.612Z,10.87
2022-10-23T06:53:20.695Z,10.91
2022-10-23T06:54:19.695Z,10.90
2022-10-23T06:55:19.685Z,10.91
2022-10-23T06:56:19.695Z,10.93
2022-10-23T06:57:19.654Z,10.95
2022-10-23T06:58:19.656Z,10.97
2022-10-23T06:59:19.646Z,10.97
2022-10-23T07:00:19.629Z,10.97
2022-10-23T07:01:19.814Z,10.97
2022-10-23T07:02:19.607Z,10.98
2022-10-23T07:03:19.596Z,10.97
2022-10-23T07:04:19.596Z,10.98
2022-10-23T07:05:19.568Z,10.97
2022-10-23T07:06:19.578Z,10.98
2022-10-23T07:07:19.550Z,10.97
2022-10-23T07:08:19.547Z,10.98
2022-10-23T07:09:19.541Z,10.97
2022-10-23T07:10:19.529Z,10.95
2022-10-23T07:11:19.522Z,10.95
2022-10-23T07:12:19.519Z,10.94
2022-10-23T07:13:19.489Z,10.95
2022-10-23T07:14:19.480Z,10.94
2022-10-23T07:15:19.470Z,10.94
2022-10-23T07:16:19.481Z,10.94
2022-10-23T07:17:19.442Z,10.97
2022-10-23T07:18:19.444Z,10.97
2022-10-23T07:19:19.422Z,10.98
2022-10-23T07:20:19.422Z,11.00
2022-10-23T07:21:19.432Z,11.00
2022-10-23T07:22:19.393Z,10.98
2022-10-23T07:23:19.387Z,11.01
2022-10-23T07:24:19.381Z,11.03
2022-10-23T07:25:19.364Z,11.03
2022-10-23T07:26:19.373Z,11.04
2022-10-23T07:27:19.346Z,11.04
2022-10-23T07:28:19.337Z,11.08
2022-10-23T07:29:19.315Z,11.08
2022-10-23T07:30:19.324Z,11.08
2022-10-23T07:31:21.993Z,11.08
2022-10-23T07:32:19.295Z,11.08
2022-10-23T07:33:19.286Z,11.11
2022-10-23T07:34:19.267Z,11.09
2022-10-23T07:35:19.266Z,11.11
2022-10-23T07:36:19.258Z,11.12
2022-10-23T07:37:19.237Z,11.13
2022-10-23T07:38:19.218Z,11.15
2022-10-23T07:39:19.219Z,11.16
2022-10-23T07:40:19.206Z,11.19
2022-10-23T07:41:19.218Z,11.19
2022-10-23T07:42:19.186Z,11.20
2022-10-23T07:43:19.211Z,11.22
2022-10-23T07:44:21.018Z,11.25
2022-10-23T07:45:19.156Z,11.23
2022-10-23T07:46:19.161Z,11.22
2022-10-23T07:47:19.161Z,11.22
2022-10-23T07:48:19.121Z,11.23
2022-10-23T07:49:19.111Z,11.22
2022-10-23T07:50:19.095Z,11.23
2022-10-23T07:51:19.091Z,11.25
2022-10-23T07:52:19.095Z,11.27
2022-10-23T07:53:19.062Z,11.28
2022-10-23T07:54:19.061Z,11.31
2022-10-23T07:55:19.053Z,11.34
2022-10-23T07:56:19.032Z,11.34
2022-10-23T07:57:19.043Z,11.37
2022-10-23T07:58:19.015Z,11.40
2022-10-23T07:59:19.014Z,11.40
2022-10-23T08:00:19.046Z,11.40
2022-10-23T08:01:19.085Z,11.40
2022-10-23T08:02:19.020Z,11.41
2022-10-23T08:03:18.965Z,11.45
2022-10-23T08:04:18.946Z,11.45
2022-10-23T08:05:18.947Z,11.46
2022-10-23T08:06:18.926Z,11.49
2022-10-23T08:07:18.947Z,11.48
2022-10-23T08:08:18.907Z,11.51
2022-10-23T08:09:18.908Z,11.52
2022-10-23T08:10:18.887Z,11.56
2022-10-23T08:11:18.879Z,11.58
2022-10-23T08:12:18.893Z,11.61
2022-10-23T08:13:18.859Z,11.62
2022-10-23T08:14:18.847Z,11.66
2022-10-23T08:15:18.840Z,11.66
2022-10-23T08:16:18.831Z,11.67
2022-10-23T08:17:18.830Z,11.70
2022-10-23T08:18:18.810Z,11.73
2022-10-23T08:19:18.792Z,11.73
2022-10-23T08:20:18.783Z,11.77
2022-10-23T08:21:18.780Z,11.82
2022-10-23T08:22:18.774Z,11.84
2022-10-23T08:23:18.763Z,11.88
2022-10-23T08:24:18.741Z,11.95
2022-10-23T08:25:21.881Z,11.97
2022-10-23T08:26:19.713Z,12.03
2022-10-23T08:27:18.743Z,12.04
2022-10-23T08:28:18.694Z,12.10
2022-10-23T08:29:18.695Z,12.15
2022-10-23T08:30:18.682Z,12.18
2022-10-23T08:31:18.665Z,12.25
2022-10-23T08:32:18.680Z,12.28
2022-10-23T08:33:18.654Z,12.30
2022-10-23T08:34:18.635Z,12.36
2022-10-23T08:35:18.635Z,12.40
2022-10-23T08:36:18.616Z,12.44
2022-10-23T08:37:18.629Z,12.50
2022-10-23T08:38:18.593Z,12.55
2022-10-23T08:39:18.594Z,12.63
2022-10-23T08:40:18.578Z,12.71
2022-10-23T08:41:18.568Z,12.80
2022-10-23T08:42:18.609Z,12.88
2022-10-23T08:43:18.570Z,12.96
2022-10-23T08:44:18.543Z,13.02
2022-10-23T08:45:18.538Z,13.09
2022-10-23T08:46:18.510Z,13.11
2022-10-23T08:47:18.520Z,13.17
2022-10-23T08:48:18.493Z,13.24
2022-10-23T08:49:18.481Z,13.27
2022-10-23T08:50:18.594Z,13.30
2022-10-23T08:51:18.462Z,13.35
2022-10-23T08:52:18.464Z,13.38
2022-10-23T08:53:18.439Z,13.42
2022-10-23T08:54:18.447Z,13.45
2022-10-23T08:55:18.419Z,13.49
2022-10-23T08:56:18.401Z,13.54
2022-10-23T08:57:18.412Z,13.57
2022-10-23T08:58:18.384Z,13.60
2022-10-23T08:59:18.375Z,13.63
2022-10-23T09:00:18.354Z,13.65
2022-10-23T09:01:18.485Z,13.67
2022-10-23T09:02:18.435Z,13.72
2022-10-23T09:03:18.332Z,13.75
2022-10-23T09:04:18.315Z,13.78
2022-10-23T09:05:18.306Z,13.79
2022-10-23T09:06:18.296Z,13.82
2022-10-23T09:07:18.304Z,13.86
2022-10-23T09:08:18.267Z,13.90
2022-10-23T09:09:18.267Z,13.93
2022-10-23T09:10:18.258Z,13.94
2022-10-23T09:11:18.249Z,13.96
2022-10-23T09:12:18.249Z,13.98
2022-10-23T09:13:18.228Z,14.03
2022-10-23T09:14:18.212Z,14.05
2022-10-23T09:15:18.200Z,14.08
2022-10-23T09:16:18.190Z,14.09
2022-10-23T09:17:18.218Z,14.12
2022-10-23T09:18:18.166Z,14.15
2022-10-23T09:19:18.166Z,14.18
2022-10-23T09:20:18.163Z,14.19
2022-10-23T09:21:18.157Z,14.19
2022-10-23T09:22:18.149Z,14.21
2022-10-23T09:23:18.115Z,14.22
2022-10-23T09:24:18.112Z,14.26
2022-10-23T09:25:18.139Z,14.27
2022-10-23T09:26:18.082Z,14.27
2022-10-23T09:27:18.097Z,14.28
2022-10-23T09:28:18.065Z,14.33
2022-10-23T09:29:18.065Z,14.34
2022-10-23T09:30:18.052Z,14.36
2022-10-23T09:31:18.037Z,14.37
2022-10-23T09:32:18.035Z,14.38
2022-10-23T09:33:18.014Z,14.40
2022-10-23T09:34:17.995Z,14.41
2022-10-23T09:35:17.997Z,14.44
2022-10-23T09:36:17.977Z,14.44
2022-10-23T09:37:18.422Z,14.45
2022-10-23T09:38:17.956Z,14.46
2022-10-23T09:39:17.948Z,14.48
2022-10-23T09:40:17.933Z,14.45
2022-10-23T09:41:17.929Z,14.48
2022-10-23T09:42:17.938Z,14.48
2022-10-23T09:43:17.913Z,14.51
2022-10-23T09:44:17.890Z,14.52
2022-10-23T09:45:17.883Z,14.53
2022-10-23T09:46:17.871Z,14.55
2022-10-23T09:47:17.882Z,14.58
2022-10-23T09:48:17.843Z,14.59
2022-10-23T09:49:17.854Z,14.63
2022-10-23T09:50:17.870Z,14.66
2022-10-23T09:51:17.827Z,14.67
2022-10-23T09:52:17.824Z,14.67
2022-10-23T09:53:17.799Z,14.70
2022-10-23T09:54:17.783Z,14.69
2022-10-23T09:55:17.782Z,14.71
2022-10-23T09:56:21.247Z,14.74
2022-10-23T09:57:18.787Z,14.74
2022-10-23T09:58:17.744Z,14.74
2022-10-23T09:59:17.735Z,14.78
2022-10-23T10:00:17.784Z,14.82
2022-10-23T10:01:17.797Z,14.82
2022-10-23T10:02:17.872Z,14.83
2022-10-23T10:03:17.695Z,14.87
2022-10-23T10:04:17.676Z,14.87
2022-10-23T10:05:17.675Z,14.90
2022-10-23T10:06:17.658Z,14.93
2022-10-23T10:07:17.668Z,14.96
2022-10-23T10:08:17.638Z,14.95
2022-10-23T10:09:17.629Z,14.99
2022-10-23T10:10:17.690Z,15.03
2022-10-23T10:11:17.609Z,15.04
2022-10-23T10:12:17.609Z,15.07
2022-10-23T10:13:17.590Z,15.07
2022-10-23T10:14:17.572Z,15.11
2022-10-23T10:15:17.574Z,15.14
2022-10-23T10:16:17.552Z,15.15
2022-10-23T10:17:17.564Z,15.15
2022-10-23T10:18:17.532Z,15.19
2022-10-23T10:19:17.529Z,15.19
2022-10-23T10:20:17.511Z,15.19
2022-10-23T10:21:17.504Z,15.23
2022-10-23T10:22:17.505Z,15.22
2022-10-23T10:23:17.483Z,15.22
2022-10-23T10:24:17.485Z,15.25
2022-10-23T10:25:17.478Z,15.27
2022-10-23T10:26:17.490Z,15.27
2022-10-23T10:27:17.466Z,15.29
2022-10-23T10:28:17.432Z,15.30
2022-10-23T10:29:17.425Z,15.30
2022-10-23T10:30:17.406Z,15.33
2022-10-23T10:31:17.405Z,15.30
2022-10-23T10:32:17.407Z,15.38
2022-10-23T10:33:17.384Z,15.41
2022-10-23T10:34:17.367Z,15.47
2022-10-23T10:35:17.365Z,15.50
2022-10-23T10:36:17.374Z,15.54
2022-10-23T10:37:17.357Z,15.56
2022-10-23T10:38:17.327Z,15.59
2022-10-23T10:39:17.319Z,15.62
2022-10-23T10:40:17.341Z,15.62
2022-10-23T10:41:17.298Z,15.65
2022-10-23T10:42:17.299Z,15.63
2022-10-23T10:43:17.271Z,15.65
2022-10-23T10:44:17.261Z,15.63
2022-10-23T10:45:17.252Z,15.62
2022-10-23T10:46:17.242Z,15.60
2022-10-23T10:47:20.171Z,15.60
2022-10-23T10:48:17.221Z,15.62
2022-10-23T10:49:17.212Z,15.60
2022-10-23T10:50:17.196Z,15.58
2022-10-23T10:51:17.184Z,15.59
2022-10-23T10:52:17.203Z,15.59
2022-10-23T10:53:17.175Z,15.60
2022-10-23T10:54:17.154Z,15.63
2022-10-23T10:55:17.144Z,15.60
2022-10-23T10:56:17.126Z,15.62
2022-10-23T10:57:17.143Z,15.62
2022-10-23T10:58:17.108Z,15.62
2022-10-23T10:59:17.106Z,15.63
2022-10-23T11:00:17.087Z,15.65
2022-10-23T11:01:17.178Z,15.66
2022-10-23T11:02:17.154Z,15.68
2022-10-23T11:03:17.059Z,15.68
2022-10-23T11:04:17.047Z,15.66
2022-10-23T11:05:17.037Z,15.69
2022-10-23T11:06:17.021Z,15.69
2022-10-23T11:07:17.037Z,15.70
2022-10-23T11:08:17.008Z,15.70
2022-10-23T11:09:20.686Z,15.69
2022-10-23T11:10:16.981Z,15.72
2022-10-23T11:11:16.971Z,15.72
2022-10-23T11:12:16.973Z,15.73
2022-10-23T11:13:16.952Z,15.73
2022-10-23T11:14:16.933Z,15.76
2022-10-23T11:15:16.931Z,15.73
2022-10-23T11:16:16.915Z,15.76
2022-10-23T11:17:16.934Z,15.77
2022-10-23T11:18:16.906Z,15.77
2022-10-23T11:19:16.935Z,15.77
2022-10-23T11:20:16.884Z,15.77
2022-10-23T11:21:16.865Z,15.76
2022-10-23T11:22:16.869Z,15.77
2022-10-23T11:23:16.846Z,15.76
2022-10-23T11:24:16.827Z,15.76
2022-10-23T11:25:16.817Z,15.76
2022-10-23T11:26:19.776Z,15.77
2022-10-23T11:27:16.834Z,15.77
2022-10-23T11:28:16.779Z,15.76
2022-10-23T11:29:16.777Z,15.77
2022-10-23T11:30:16.759Z,15.77
2022-10-23T11:31:16.757Z,15.76
2022-10-23T11:32:16.756Z,15.73
2022-10-23T11:33:16.740Z,15.76
2022-10-23T11:34:16.757Z,15.76
2022-10-23T11:35:16.710Z,15.78
2022-10-23T11:36:16.691Z,15.78
2022-10-23T11:37:16.709Z,15.78
2022-10-23T11:38:16.672Z,15.78
2022-10-23T11:39:16.671Z,15.78
2022-10-23T11:40:16.655Z,15.80
2022-10-23T11:41:18.908Z,15.78
2022-10-23T11:42:16.653Z,15.81
2022-10-23T11:43:16.624Z,15.80
2022-10-23T11:44:16.611Z,15.80
2022-10-23T11:45:16.605Z,15.81
2022-10-23T11:46:16.604Z,15.80
2022-10-23T11:47:16.602Z,15.80
2022-10-23T11:48:16.573Z,15.81
2022-10-23T11:49:16.559Z,15.81
2022-10-23T11:50:16.556Z,15.81
2022-10-23T11:51:16.536Z,15.81
2022-10-23T11:52:16.548Z,15.83
2022-10-23T11:53:17.038Z,15.81
2022-10-23T11:54:16.508Z,15.83
2022-10-23T11:55:16.489Z,15.83
2022-10-23T11:56:16.501Z,15.83
2022-10-23T11:57:16.491Z,15.84
2022-10-23T11:58:16.467Z,15.85
2022-10-23T11:59:16.450Z,15.84
2022-10-23T12:00:16.447Z,15.84
2022-10-23T12:01:16.507Z,15.85
2022-10-23T12:02:16.484Z,15.87
2022-10-23T12:03:16.411Z,15.87
2022-10-23T12:04:16.402Z,15.87
2022-10-23T12:05:16.391Z,15.87
2022-10-23T12:06:16.382Z,15.88
2022-10-23T12:07:16.381Z,15.90
2022-10-23T12:08:16.361Z,15.93
2022-10-23T12:09:16.343Z,15.96
2022-10-23T12:10:16.334Z,15.99
2022-10-23T12:11:16.315Z,16.02
2022-10-23T12:12:16.334Z,16.02
2022-10-23T12:13:16.314Z,16.05
2022-10-23T12:14:16.299Z,16.06
2022-10-23T12:15:16.284Z,16.06
2022-10-23T12:16:16.277Z,16.06
2022-10-23T12:17:16.275Z,16.05
2022-10-23T12:18:16.258Z,16.06
2022-10-23T12:19:16.236Z,16.05
2022-10-23T12:20:16.227Z,16.05
2022-10-23T12:21:16.217Z,16.03
2022-10-23T12:22:16.234Z,16.03
2022-10-23T12:23:16.197Z,16.03
2022-10-23T12:24:16.188Z,16.03
2022-10-23T12:25:16.169Z,16.03
2022-10-23T12:26:16.161Z,16.03
2022-10-23T12:27:16.167Z,16.03
2022-10-23T12:28:16.142Z,16.05
2022-10-23T12:29:16.121Z,16.03
2022-10-23T12:30:16.131Z,16.05
2022-10-23T12:31:16.102Z,16.02
2022-10-23T12:32:16.129Z,16.03
2022-10-23T12:33:16.083Z,16.02
2022-10-23T12:34:16.075Z,15.99
2022-10-23T12:35:16.064Z,16.00
2022-10-23T12:36:16.054Z,16.02
2022-10-23T12:37:16.063Z,16.02
2022-10-23T12:38:16.034Z,16.03
2022-10-23T12:40:16.013Z,16.02
2022-10-23T12:41:16.005Z,16.00
2022-10-23T12:42:16.015Z,16.02
2022-10-23T12:43:15.976Z,15.99
2022-10-23T12:44:15.969Z,16.00
2022-10-23T12:45:15.947Z,15.99
2022-10-23T12:46:17.722Z,15.99
2022-10-23T12:47:15.949Z,15.99
2022-10-23T12:48:15.926Z,16.00
2022-10-23T12:49:15.911Z,16.00
2022-10-23T12:50:15.907Z,15.98
2022-10-23T12:51:15.889Z,15.99
2022-10-23T12:52:15.935Z,16.00
2022-10-23T12:53:15.868Z,15.99
2022-10-23T12:54:15.871Z,15.98
2022-10-23T12:55:15.849Z,15.98
2022-10-23T12:56:15.841Z,15.96
2022-10-23T12:57:15.842Z,15.95
2022-10-23T12:58:15.820Z,15.96